createdAt,value
2019-03-18T00:01:44.903Z,6.95
2019-03-18T00:04:18.099Z,7.03
2019-03-18T00:06:48.743Z,7.00
2019-03-18T00:09:19.066Z,6.76
2019-03-18T00:11:49.610Z,6.82
2019-03-18T00:14:20.771Z,7.16
2019-03-18T00:16:51.861Z,7.04
2019-03-18T00:19:22.891Z,6.59
2019-03-18T00:21:53.162Z,6.37
2019-03-18T00:24:23.146Z,6.56
2019-03-18T00:26:53.701Z,6.53
2019-03-18T00:29:23.833Z,6.69
2019-03-18T00:31:57.498Z,6.73
2019-03-18T00:34:27.818Z,6.32
2019-03-18T00:36:58.145Z,6.44
2019-03-18T00:39:35.100Z,6.68
2019-03-18T00:42:09.632Z,6.58
2019-03-18T00:44:40.002Z,6.47
2019-03-18T00:47:10.605Z,6.35
2019-03-18T00:49:40.946Z,6.09
2019-03-18T00:52:14.426Z,6.09
2019-03-18T00:54:45.313Z,5.95
2019-03-18T00:57:15.661Z,6.34
2019-03-18T00:59:46.754Z,5.96
2019-03-18T01:02:18.093Z,5.93
2019-03-18T01:04:49.513Z,6.21
2019-03-18T01:07:19.777Z,6.22
2019-03-18T01:09:49.786Z,6.40
2019-03-18T01:12:20.445Z,6.29
2019-03-18T01:14:50.840Z,6.34
2019-03-18T01:17:20.823Z,6.24
2019-03-18T01:19:51.283Z,6.01
2019-03-18T01:22:25.168Z,6.21
2019-03-18T01:24:55.843Z,6.63
2019-03-18T01:27:25.977Z,6.89
2019-03-18T01:29:57.037Z,6.82
2019-03-18T01:32:27.279Z,6.94
2019-03-18T01:34:57.942Z,6.85
2019-03-18T01:37:29.434Z,7.03
2019-03-18T01:40:02.752Z,6.81
2019-03-18T01:42:34.549Z,6.68
2019-03-18T01:45:07.673Z,6.73
2019-03-18T01:47:38.586Z,6.56
2019-03-18T01:50:09.113Z,6.36
2019-03-18T01:52:39.067Z,6.34
2019-03-18T01:55:09.920Z,6.29
2019-03-18T01:57:40.085Z,6.43
2019-03-18T02:00:10.832Z,6.57
2019-03-18T02:02:41.748Z,6.45
2019-03-18T02:05:12.239Z,6.00
2019-03-18T02:07:42.215Z,6.32
2019-03-18T02:10:12.379Z,6.34
2019-03-18T02:12:43.474Z,6.39
2019-03-18T02:15:13.339Z,6.35
2019-03-18T02:17:43.496Z,6.17
2019-03-18T02:20:14.744Z,6.37
2019-03-18T02:22:44.840Z,6.34
2019-03-18T02:25:15.208Z,5.97
2019-03-18T02:27:45.376Z,6.02
2019-03-18T02:30:15.840Z,5.77
2019-03-18T02:32:45.680Z,5.94
2019-03-18T02:35:16.380Z,5.73
2019-03-18T02:37:47.783Z,5.61
2019-03-18T02:40:18.203Z,5.74
2019-03-18T02:42:49.144Z,5.72
2019-03-18T02:45:19.629Z,5.69
2019-03-18T02:47:49.733Z,5.68
2019-03-18T02:50:19.518Z,5.67
2019-03-18T02:52:50.560Z,5.97
2019-03-18T02:55:20.699Z,5.88
2019-03-18T02:57:50.992Z,5.62
2019-03-18T03:00:21.277Z,5.87
2019-03-18T03:02:52.967Z,5.91
2019-03-18T03:05:23.902Z,6.00
2019-03-18T03:07:54.674Z,5.65
2019-03-18T03:10:24.958Z,5.48
2019-03-18T03:12:55.953Z,5.36
2019-03-18T03:15:30.047Z,5.35
2019-03-18T03:18:05.244Z,5.28
2019-03-18T03:20:35.827Z,5.50
2019-03-18T03:23:07.518Z,5.52
2019-03-18T03:25:37.465Z,5.51
2019-03-18T03:28:07.467Z,5.77
2019-03-18T03:30:37.749Z,5.71
2019-03-18T03:33:07.616Z,5.43
2019-03-18T03:35:37.458Z,5.47
2019-03-18T03:38:07.612Z,5.82
2019-03-18T03:40:37.883Z,5.55
2019-03-18T03:43:08.504Z,5.88
2019-03-18T03:45:39.012Z,5.59
2019-03-18T03:48:09.401Z,6.00
2019-03-18T03:50:39.552Z,6.04
2019-03-18T03:53:09.197Z,5.96
2019-03-18T03:55:39.860Z,5.79
2019-03-18T03:58:09.717Z,5.73
2019-03-18T04:00:39.951Z,5.64
2019-03-18T04:03:10.477Z,5.59
2019-03-18T04:05:40.784Z,5.95
2019-03-18T04:08:10.647Z,5.99
2019-03-18T04:10:40.595Z,5.56
2019-03-18T04:13:11.941Z,5.71
2019-03-18T04:15:41.990Z,5.81
2019-03-18T04:18:11.929Z,6.10
2019-03-18T04:20:42.129Z,6.02
2019-03-18T04:23:11.849Z,6.43
2019-03-18T04:25:42.039Z,6.50
2019-03-18T04:28:12.359Z,6.65
2019-03-18T04:30:42.112Z,6.88
2019-03-18T04:33:12.110Z,7.10
2019-03-18T04:35:42.712Z,6.50
2019-03-18T04:38:12.985Z,6.90
2019-03-18T04:40:43.196Z,6.61
2019-03-18T04:43:13.153Z,6.45
2019-03-18T04:45:42.745Z,6.09
2019-03-18T04:48:12.723Z,5.99
2019-03-18T04:50:43.714Z,5.85
2019-03-18T04:53:15.508Z,5.68
2019-03-18T04:55:45.888Z,5.55
2019-03-18T04:58:15.631Z,5.53
2019-03-18T05:00:45.697Z,5.62
2019-03-18T05:03:16.923Z,5.86
2019-03-18T05:05:47.938Z,5.98
2019-03-18T05:08:18.035Z,5.87
2019-03-18T05:10:48.639Z,6.16
2019-03-18T05:13:19.054Z,6.20
2019-03-18T05:15:49.034Z,6.16
2019-03-18T05:18:19.092Z,6.31
2019-03-18T05:20:49.850Z,6.81
2019-03-18T05:23:20.229Z,6.41
2019-03-18T05:25:50.418Z,6.11
2019-03-18T05:28:20.495Z,6.25
2019-03-18T05:30:50.492Z,6.25
2019-03-18T05:33:20.306Z,6.04
2019-03-18T05:35:50.590Z,5.99
2019-03-18T05:38:20.676Z,6.00
2019-03-18T05:40:50.935Z,5.81
2019-03-18T05:43:20.861Z,5.85
2019-03-18T05:45:50.978Z,5.62
2019-03-18T05:48:20.993Z,5.54
2019-03-18T05:50:50.935Z,5.49
2019-03-18T05:53:21.592Z,5.58
2019-03-18T05:55:51.698Z,5.52
2019-03-18T05:58:21.835Z,5.49
2019-03-18T06:00:52.743Z,5.60
2019-03-18T06:03:22.890Z,5.57
2019-03-18T06:05:55.590Z,5.60
2019-03-18T06:08:26.717Z,5.75
2019-03-18T06:10:56.715Z,5.63
2019-03-18T06:13:26.668Z,5.60
2019-03-18T06:15:56.723Z,5.67
2019-03-18T06:18:27.115Z,5.68
2019-03-18T06:20:57.179Z,5.71
2019-03-18T06:23:28.100Z,5.68
2019-03-18T06:25:58.677Z,5.87
2019-03-18T06:28:29.231Z,5.81
2019-03-18T06:30:59.169Z,5.79
2019-03-18T06:33:29.337Z,5.89
2019-03-18T06:35:59.394Z,5.87
2019-03-18T06:38:29.368Z,5.82
2019-03-18T06:41:00.032Z,5.90
2019-03-18T06:43:30.344Z,5.84
2019-03-18T06:46:00.438Z,5.83
2019-03-18T06:48:31.033Z,5.81
2019-03-18T06:51:01.983Z,5.84
2019-03-18T06:53:32.020Z,5.87
2019-03-18T06:56:05.142Z,5.88
2019-03-18T06:58:35.599Z,5.96
2019-03-18T07:01:06.069Z,5.98
2019-03-18T07:03:36.241Z,5.99
2019-03-18T07:06:09.618Z,6.10
2019-03-18T07:08:39.531Z,6.07
2019-03-18T07:11:10.132Z,6.13
2019-03-18T07:13:40.110Z,6.17
2019-03-18T07:16:11.291Z,6.23
2019-03-18T07:18:41.851Z,6.16
2019-03-18T07:21:22.018Z,6.24
2019-03-18T07:23:52.699Z,6.32
2019-03-18T07:26:22.849Z,6.44
2019-03-18T07:28:52.751Z,6.47
2019-03-18T07:31:25.151Z,6.46
2019-03-18T07:33:54.786Z,6.53
2019-03-18T07:36:24.374Z,6.55
2019-03-18T07:38:54.458Z,6.73
2019-03-18T07:41:24.469Z,6.88
2019-03-18T07:43:57.376Z,6.93
2019-03-18T07:46:27.114Z,6.81
2019-03-18T07:48:56.744Z,7.01
2019-03-18T07:51:26.288Z,7.20
2019-03-18T07:53:56.885Z,6.98
2019-03-18T07:56:26.417Z,7.02
2019-03-18T07:58:56.115Z,6.96
2019-03-18T08:01:26.369Z,6.80
2019-03-18T08:03:56.125Z,6.96
2019-03-18T08:06:26.191Z,7.09
2019-03-18T08:08:56.445Z,7.07
2019-03-18T08:11:25.982Z,7.07
2019-03-18T08:13:55.961Z,7.09
2019-03-18T08:16:26.183Z,7.37
2019-03-18T08:18:55.820Z,7.50
2019-03-18T08:21:25.562Z,7.54
2019-03-18T08:23:56.445Z,7.61
2019-03-18T08:26:27.303Z,7.66
2019-03-18T08:28:57.198Z,7.79
2019-03-18T08:31:26.819Z,7.80
2019-03-18T08:33:56.582Z,7.82
2019-03-18T08:36:26.796Z,7.76
2019-03-18T08:38:56.606Z,7.95
2019-03-18T08:41:26.408Z,7.95
2019-03-18T08:43:57.059Z,8.00
2019-03-18T08:46:26.821Z,8.01
2019-03-18T08:48:57.039Z,8.21
2019-03-18T08:51:27.381Z,8.25
2019-03-18T08:53:57.465Z,8.82
2019-03-18T08:56:29.648Z,8.47
2019-03-18T08:58:59.781Z,8.39
2019-03-18T09:01:32.044Z,8.44
2019-03-18T09:04:01.234Z,8.44
2019-03-18T09:06:32.408Z,8.49
2019-03-18T09:09:04.490Z,8.38
2019-03-18T09:11:34.282Z,8.77
2019-03-18T09:14:09.720Z,8.88
2019-03-18T09:16:40.341Z,9.04
2019-03-18T09:19:11.210Z,9.25
2019-03-18T09:21:42.361Z,9.64
2019-03-18T09:24:12.981Z,9.63
2019-03-18T09:26:42.512Z,9.89
2019-03-18T09:29:18.098Z,9.76
2019-03-18T09:31:47.680Z,9.86
2019-03-18T09:34:17.362Z,10.11
2019-03-18T09:36:47.471Z,9.82
2019-03-18T09:39:17.746Z,9.68
2019-03-18T09:41:47.768Z,9.93
2019-03-18T09:44:17.642Z,9.93
2019-03-18T09:46:47.241Z,9.74
2019-03-18T09:49:21.902Z,10.19
2019-03-18T09:51:49.096Z,10.22
2019-03-18T09:54:19.319Z,10.41
2019-03-18T09:56:49.712Z,10.53
2019-03-18T09:59:19.787Z,10.43
2019-03-18T10:01:49.505Z,10.25
2019-03-18T10:04:19.458Z,10.16
2019-03-18T10:06:49.420Z,10.27
2019-03-18T10:09:20.982Z,10.47
2019-03-18T10:11:50.983Z,10.54
2019-03-18T10:14:20.633Z,10.75
2019-03-18T10:16:50.984Z,10.22
2019-03-18T10:19:32.763Z,10.35
2019-03-18T10:21:54.600Z,10.52
2019-03-18T10:24:25.109Z,10.50
2019-03-18T10:26:55.640Z,10.22
2019-03-18T10:29:25.497Z,10.24
2019-03-18T10:31:55.558Z,10.20
2019-03-18T10:34:25.484Z,10.16
2019-03-18T10:36:56.336Z,10.13
2019-03-18T10:39:26.940Z,9.97
2019-03-18T10:41:57.014Z,9.95
2019-03-18T10:44:26.916Z,10.07
2019-03-18T10:46:58.220Z,10.08
2019-03-18T10:49:28.062Z,10.33
2019-03-18T10:51:57.941Z,9.89
2019-03-18T10:54:31.216Z,9.93
2019-03-18T10:56:59.732Z,10.07
2019-03-18T10:59:29.458Z,9.81
2019-03-18T11:01:58.980Z,10.12
2019-03-18T11:04:29.281Z,10.19
2019-03-18T11:06:59.378Z,10.45
2019-03-18T11:09:29.063Z,10.52
2019-03-18T11:11:58.800Z,10.26
2019-03-18T11:14:28.896Z,10.28
2019-03-18T11:16:58.987Z,10.26
2019-03-18T11:19:28.818Z,10.28
2019-03-18T11:22:04.208Z,10.05
2019-03-18T11:24:35.329Z,10.34
2019-03-18T11:27:06.494Z,10.57
2019-03-18T11:29:42.509Z,10.69
2019-03-18T11:32:15.409Z,11.02
2019-03-18T11:34:46.076Z,11.55
2019-03-18T11:37:16.523Z,11.90
2019-03-18T11:39:46.348Z,12.33
2019-03-18T11:42:16.411Z,13.01
2019-03-18T11:44:50.147Z,13.15
2019-03-18T11:47:20.288Z,13.82
2019-03-18T11:49:50.007Z,14.52
2019-03-18T11:52:20.034Z,14.92
2019-03-18T11:54:49.792Z,15.25
2019-03-18T11:57:19.396Z,15.26
2019-03-18T11:59:51.023Z,14.96
2019-03-18T12:02:27.871Z,13.90
2019-03-18T12:04:58.753Z,14.00
2019-03-18T12:07:29.969Z,13.98
2019-03-18T12:10:02.604Z,13.42
2019-03-18T12:12:32.244Z,13.35
2019-03-18T12:15:05.976Z,13.34
2019-03-18T12:17:35.728Z,13.40
2019-03-18T12:20:09.594Z,13.09
2019-03-18T12:22:39.677Z,12.62
2019-03-18T12:25:10.969Z,12.91
2019-03-18T12:27:40.730Z,12.99
2019-03-18T12:30:19.743Z,13.34
2019-03-18T12:32:50.164Z,14.02
2019-03-18T12:35:20.452Z,14.29
2019-03-18T12:37:50.321Z,14.05
2019-03-18T12:40:23.073Z,14.19
2019-03-18T12:42:52.822Z,14.37
2019-03-18T12:45:22.858Z,13.95
2019-03-18T12:47:53.122Z,13.99
2019-03-18T12:50:38.570Z,14.84
2019-03-18T12:52:55.228Z,15.20
2019-03-18T12:55:25.190Z,15.39
2019-03-18T12:57:55.588Z,15.68
2019-03-18T13:00:25.755Z,16.12
2019-03-18T13:02:55.603Z,16.49
2019-03-18T13:05:26.888Z,17.48
2019-03-18T13:07:56.927Z,18.20
2019-03-18T13:10:27.034Z,18.84
2019-03-18T13:13:03.581Z,19.27
2019-03-18T13:15:33.814Z,20.02
2019-03-18T13:18:06.835Z,18.25
2019-03-18T13:20:39.658Z,18.93
2019-03-18T13:23:09.664Z,18.64
2019-03-18T13:25:40.109Z,18.14
2019-03-18T13:28:13.861Z,18.08
2019-03-18T13:31:04.175Z,17.96
2019-03-18T13:33:45.036Z,17.87
2019-03-18T13:36:17.379Z,18.43
2019-03-18T13:38:47.729Z,18.93
2019-03-18T13:41:17.492Z,19.41
2019-03-18T13:44:00.667Z,19.49
2019-03-18T13:46:30.960Z,19.32
2019-03-18T13:49:00.716Z,20.31
2019-03-18T13:51:30.739Z,20.65
2019-03-18T13:54:00.506Z,18.76
2019-03-18T13:56:30.524Z,18.75
2019-03-18T13:59:04.897Z,18.58
2019-03-18T14:01:31.941Z,18.11
2019-03-18T14:04:02.472Z,17.65
2019-03-18T14:06:32.647Z,16.96
2019-03-18T14:09:02.901Z,15.92
2019-03-18T14:11:32.838Z,15.26
2019-03-18T14:14:03.446Z,15.23
2019-03-18T14:16:33.747Z,14.84
2019-03-18T14:19:06.706Z,14.50
2019-03-18T14:21:36.701Z,14.35
2019-03-18T14:24:09.645Z,14.09
2019-03-18T14:26:39.754Z,12.00
2019-03-18T14:29:10.549Z,12.13
2019-03-18T14:31:43.908Z,12.43
2019-03-18T14:34:15.519Z,12.53
2019-03-18T14:36:45.578Z,12.23
2019-03-18T14:39:17.891Z,12.47
2019-03-18T14:41:48.223Z,12.95
2019-03-18T14:44:17.921Z,13.05
2019-03-18T14:46:48.283Z,13.47
2019-03-18T14:49:20.079Z,14.19
2019-03-18T14:51:54.946Z,15.33
2019-03-18T14:54:29.813Z,17.08
2019-03-18T14:56:59.871Z,17.23
2019-03-18T14:59:31.001Z,17.95
2019-03-18T15:02:10.762Z,18.52
2019-03-18T15:04:40.248Z,18.68
2019-03-18T15:07:12.593Z,18.60
2019-03-18T15:09:44.676Z,20.33
2019-03-18T15:12:16.844Z,22.13
2019-03-18T15:14:47.343Z,23.46
2019-03-18T15:17:18.338Z,21.90
2019-03-18T15:19:49.904Z,23.72
2019-03-18T15:22:20.820Z,24.63
2019-03-18T15:24:52.943Z,24.61
2019-03-18T15:27:26.778Z,25.42
2019-03-18T15:29:57.636Z,26.61
2019-03-18T15:32:27.660Z,26.99
2019-03-18T15:34:59.039Z,26.42
2019-03-18T15:37:30.442Z,26.36
2019-03-18T15:40:00.726Z,26.78
2019-03-18T15:42:31.437Z,26.29
2019-03-18T15:45:03.453Z,26.25
2019-03-18T15:47:35.787Z,24.37
2019-03-18T15:50:12.881Z,24.18
2019-03-18T15:52:42.283Z,21.65
2019-03-18T15:55:13.562Z,17.75
2019-03-18T15:57:47.796Z,17.53
2019-03-18T16:00:23.210Z,16.27
2019-03-18T16:02:53.351Z,15.76
2019-03-18T16:05:23.867Z,15.36
2019-03-18T16:07:55.124Z,15.19
2019-03-18T16:10:25.564Z,14.69
2019-03-18T16:12:56.278Z,14.32
2019-03-18T16:15:26.973Z,15.06
2019-03-18T16:17:58.383Z,16.61
2019-03-18T16:20:29.042Z,18.26
2019-03-18T16:22:59.368Z,19.74
2019-03-18T16:25:30.023Z,20.72
2019-03-18T16:28:00.319Z,20.95
2019-03-18T16:30:39.704Z,20.45
2019-03-18T16:33:17.219Z,19.59
2019-03-18T16:35:47.849Z,17.97
2019-03-18T16:38:18.209Z,17.63
2019-03-18T16:40:48.921Z,16.85
2019-03-18T16:43:22.510Z,15.98
2019-03-18T16:45:52.935Z,15.29
2019-03-18T16:48:28.774Z,13.85
2019-03-18T16:51:00.399Z,13.68
2019-03-18T16:53:31.081Z,12.51
2019-03-18T16:56:05.643Z,12.96
2019-03-18T16:58:36.140Z,12.50
2019-03-18T17:01:11.485Z,12.12
2019-03-18T17:03:41.931Z,12.18
2019-03-18T17:06:15.468Z,11.72
2019-03-18T17:08:48.389Z,11.35
2019-03-18T17:11:18.842Z,11.23
2019-03-18T17:13:49.642Z,11.30
2019-03-18T17:16:21.773Z,10.84
2019-03-18T17:18:52.252Z,10.63
2019-03-18T17:21:22.624Z,10.60
2019-03-18T17:23:53.256Z,10.79
2019-03-18T17:26:23.839Z,10.51
2019-03-18T17:28:54.212Z,10.58
2019-03-18T17:31:31.808Z,10.73
2019-03-18T17:34:03.531Z,10.99
2019-03-18T17:36:33.911Z,10.69
2019-03-18T17:39:04.502Z,10.94
2019-03-18T17:41:34.813Z,10.87
2019-03-18T17:44:07.711Z,10.73
2019-03-18T17:46:40.310Z,10.43
2019-03-18T17:49:10.629Z,10.73
2019-03-18T17:51:43.699Z,10.67
2019-03-18T17:54:17.076Z,10.78
2019-03-18T17:56:47.863Z,10.92
2019-03-18T17:59:20.392Z,10.58
2019-03-18T18:01:50.919Z,10.43
2019-03-18T18:04:25.465Z,10.01
2019-03-18T18:06:56.302Z,9.97
2019-03-18T18:09:27.301Z,9.93
2019-03-18T18:12:00.765Z,9.88
2019-03-18T18:14:34.229Z,10.00
2019-03-18T18:17:07.878Z,9.91
2019-03-18T18:19:38.585Z,9.82
2019-03-18T18:22:16.211Z,9.88
2019-03-18T18:24:56.046Z,9.77
2019-03-18T18:27:26.678Z,9.84
2019-03-18T18:29:57.114Z,9.62
2019-03-18T18:32:32.941Z,9.53
2019-03-18T18:35:04.584Z,9.54
2019-03-18T18:37:36.093Z,9.45
2019-03-18T18:40:08.558Z,9.52
2019-03-18T18:42:40.267Z,9.31
2019-03-18T18:45:14.240Z,9.41
2019-03-18T18:47:46.957Z,9.34
2019-03-18T18:50:17.470Z,9.38
2019-03-18T18:52:49.629Z,9.29
2019-03-18T18:55:20.192Z,9.40
2019-03-18T18:57:50.390Z,9.56
2019-03-18T19:00:29.300Z,9.88
2019-03-18T19:03:00.725Z,10.02
2019-03-18T19:05:36.654Z,10.34
2019-03-18T19:08:11.210Z,10.51
2019-03-18T19:10:45.708Z,10.80
2019-03-18T19:13:22.996Z,10.99
2019-03-18T19:15:55.968Z,11.02
2019-03-18T19:18:37.714Z,10.97
2019-03-18T19:21:01.989Z,11.32
2019-03-18T19:23:38.031Z,10.99
2019-03-18T19:26:19.264Z,11.02
2019-03-18T19:28:52.850Z,10.36
2019-03-18T19:31:37.777Z,10.57
2019-03-18T19:34:44.260Z,10.29
2019-03-18T19:37:17.226Z,10.25
2019-03-18T19:39:47.661Z,10.22
2019-03-18T19:43:04.974Z,10.23
2019-03-18T19:45:36.306Z,10.27
2019-03-18T19:48:12.285Z,10.36
2019-03-18T19:50:45.378Z,10.20
2019-03-18T19:53:17.295Z,9.84
2019-03-18T19:55:52.734Z,9.78
2019-03-18T19:58:22.804Z,9.65
2019-03-18T20:00:53.921Z,9.63
2019-03-18T20:03:28.318Z,10.01
2019-03-18T20:05:58.960Z,9.66
2019-03-18T20:08:38.995Z,9.50
2019-03-18T20:14:44.961Z,9.76
2019-03-18T20:17:16.219Z,9.84
2019-03-18T20:19:46.852Z,9.90
2019-03-18T20:23:05.247Z,10.30
2019-03-18T20:25:51.128Z,10.51
2019-03-18T20:28:25.179Z,10.49
2019-03-18T20:30:59.592Z,10.65
2019-03-18T20:33:29.878Z,10.51
2019-03-18T20:36:01.064Z,10.64
2019-03-18T20:38:39.550Z,10.56
2019-03-18T20:41:10.726Z,10.52
2019-03-18T20:43:41.927Z,10.17
2019-03-18T20:46:12.898Z,10.25
2019-03-18T20:49:30.286Z,10.32
2019-03-18T20:52:00.915Z,10.39
2019-03-18T20:54:34.527Z,10.49
2019-03-18T20:57:05.851Z,10.45
2019-03-18T20:59:39.215Z,10.60
2019-03-18T21:02:13.033Z,10.35
2019-03-18T21:04:43.920Z,10.05
2019-03-18T21:07:17.059Z,10.35
2019-03-18T21:09:50.472Z,10.45
2019-03-18T21:12:22.755Z,10.61
2019-03-18T21:14:54.386Z,10.55
2019-03-18T21:17:37.821Z,10.64
2019-03-18T21:20:12.069Z,10.53
2019-03-18T21:22:44.209Z,10.43
2019-03-18T21:25:20.986Z,9.71
2019-03-18T21:27:51.253Z,9.41
2019-03-18T21:30:22.081Z,9.44
2019-03-18T21:32:52.793Z,9.79
2019-03-18T21:35:23.566Z,10.08
2019-03-18T21:37:55.504Z,9.85
2019-03-18T21:40:25.630Z,9.23
2019-03-18T21:42:55.639Z,9.02
2019-03-18T21:45:26.883Z,8.75
2019-03-18T21:47:57.500Z,8.89
2019-03-18T21:50:27.528Z,8.83
2019-03-18T21:52:57.981Z,9.20
2019-03-18T21:55:28.299Z,9.46
2019-03-18T21:57:58.842Z,9.70
2019-03-18T22:00:29.238Z,9.65
2019-03-18T22:02:59.713Z,9.54
2019-03-18T22:05:29.434Z,9.74
2019-03-18T22:07:58.990Z,9.63
2019-03-18T22:10:32.962Z,9.59
2019-03-18T22:13:05.452Z,9.87
2019-03-18T22:15:35.058Z,9.88
2019-03-18T22:18:08.022Z,9.24
2019-03-18T22:20:37.866Z,9.04
2019-03-18T22:23:07.862Z,9.27
2019-03-18T22:25:37.918Z,9.56
2019-03-18T22:28:07.647Z,9.71
2019-03-18T22:30:37.477Z,9.69
2019-03-18T22:33:07.505Z,9.37
2019-03-18T22:35:37.438Z,9.60
2019-03-18T22:38:07.354Z,9.65
2019-03-18T22:40:37.889Z,9.81
2019-03-18T22:43:07.534Z,9.88
2019-03-18T22:45:38.203Z,9.92
2019-03-18T22:48:10.434Z,9.83
2019-03-18T22:50:40.480Z,10.13
2019-03-18T22:53:10.156Z,10.17
2019-03-18T22:55:39.838Z,10.19
2019-03-18T22:58:10.134Z,10.22
2019-03-18T23:01:06.215Z,10.12
2019-03-18T23:03:36.745Z,10.25
2019-03-18T23:06:24.900Z,9.86
2019-03-18T23:08:58.476Z,9.67
2019-03-18T23:11:30.100Z,9.30
2019-03-18T23:14:00.819Z,9.45
2019-03-18T23:16:35.924Z,9.70
2019-03-18T23:19:08.323Z,8.96
2019-03-18T23:21:38.561Z,8.61
2019-03-18T23:24:08.490Z,8.53
2019-03-18T23:26:38.073Z,8.98
2019-03-18T23:29:08.189Z,9.46
2019-03-18T23:31:37.902Z,9.54
2019-03-18T23:34:07.419Z,9.71
2019-03-18T23:36:37.124Z,9.80
2019-03-18T23:39:09.785Z,9.83
2019-03-18T23:41:39.787Z,9.94
2019-03-18T23:44:09.359Z,9.98
2019-03-18T23:46:39.627Z,10.13
2019-03-18T23:49:09.680Z,10.02
2019-03-18T23:51:39.532Z,10.06
2019-03-18T23:54:10.355Z,10.00
2019-03-18T23:56:40.070Z,9.94
2019-03-18T23:59:09.617Z,9.68
